Time;durP1;ratioP1;P1;durP2;ratioP2;P2;SDS_P1;SDS_P2;PMS_P1;PMS_P2;Temp;Humidity;BMP_temperature;BMP_pressure;BME280_temperature;BME280_humidity;BME280_pressure;Samples;Min_cycle;Max_cycle;Signal;HPM_P1;HPM_P2
2022/04/14 00:00:45;;;;;;;6.83;4.83;;;14.60;99.90;;;;;;5053538;28;20457;-60
2022/04/14 00:03:13;;;;;;;5.00;4.50;;;14.60;99.90;;;;;;5053509;28;20437;-60
2022/04/14 00:05:40;;;;;;;8.80;4.80;;;14.60;99.90;;;;;;5053428;28;20446;-60
2022/04/14 00:08:10;;;;;;;4.60;4.17;;;14.60;99.90;;;;;;5053757;28;20465;-60
2022/04/14 00:10:37;;;;;;;8.80;4.70;;;14.60;99.90;;;;;;5053343;28;20441;-60
2022/04/14 00:13:04;;;;;;;6.47;4.83;;;14.50;99.90;;;;;;5053573;28;20481;-60
2022/04/14 00:15:31;;;;;;;5.00;4.50;;;14.40;99.90;;;;;;5053325;28;20510;-60
2022/04/14 00:17:58;;;;;;;5.77;5.10;;;14.40;99.90;;;;;;5053143;28;20465;-60
2022/04/14 00:20:27;;;;;;;8.60;4.57;;;14.50;99.90;;;;;;5053224;28;20453;-60
2022/04/14 00:22:54;;;;;;;6.60;5.20;;;14.50;99.90;;;;;;5053499;28;20806;-60
2022/04/14 00:25:22;;;;;;;16.43;5.70;;;14.50;99.90;;;;;;5052999;28;20457;-60
2022/04/14 00:27:49;;;;;;;7.73;5.50;;;14.40;99.90;;;;;;5053351;28;20476;-61
2022/04/14 00:30:16;;;;;;;9.00;5.00;;;14.30;99.90;;;;;;5052952;28;20880;-59
2022/04/14 00:32:44;;;;;;;7.93;5.53;;;14.30;99.90;;;;;;5053537;28;20449;-59
2022/04/14 00:35:11;;;;;;;6.33;4.57;;;14.30;99.90;;;;;;5053112;28;21018;-60
2022/04/14 00:37:39;;;;;;;6.17;5.60;;;14.20;99.90;;;;;;5053413;28;20465;-60
2022/04/14 00:40:07;;;;;;;6.10;5.50;;;14.20;99.90;;;;;;5053233;28;20811;-60
2022/04/14 00:42:35;;;;;;;8.47;5.73;;;14.10;99.90;;;;;;5053282;28;20449;-60
2022/04/14 00:45:03;;;;;;;9.37;5.13;;;14.10;99.90;;;;;;5053291;28;20789;-60
2022/04/14 00:47:30;;;;;;;11.00;7.00;;;14.10;99.90;;;;;;5053470;28;20500;-59
2022/04/14 00:49:58;;;;;;;5.23;4.40;;;14.00;99.90;;;;;;5052964;28;20483;-60
2022/04/14 00:52:27;;;;;;;10.20;5.40;;;14.00;99.90;;;;;;5053227;28;20539;-60
2022/04/14 00:54:54;;;;;;;8.70;5.10;;;14.00;99.90;;;;;;5053121;28;20509;-60
2022/04/14 00:57:21;;;;;;;7.30;4.90;;;14.00;99.90;;;;;;5053059;28;20469;-60
2022/04/14 00:59:50;;;;;;;7.53;5.83;;;14.00;99.90;;;;;;5053127;28;20452;-60
2022/04/14 01:02:17;;;;;;;6.43;5.40;;;13.90;99.90;;;;;;5052991;28;20442;-60
2022/04/14 01:04:45;;;;;;;6.23;5.63;;;14.00;99.90;;;;;;5052766;28;20946;-60
2022/04/14 01:07:12;;;;;;;6.10;5.50;;;13.90;99.90;;;;;;5052978;28;20452;-60
2022/04/14 01:09:39;;;;;;;7.30;4.47;;;13.90;99.90;;;;;;5053235;28;20457;-60
2022/04/14 01:12:08;;;;;;;5.07;4.50;;;13.90;99.90;;;;;;5052776;28;20456;-60
2022/04/14 01:14:36;;;;;;;6.30;4.80;;;13.90;99.90;;;;;;5052575;28;20477;-60
2022/04/14 01:17:06;;;;;;;10.27;6.90;;;13.90;99.90;;;;;;5052995;28;20453;-60
2022/04/14 01:19:34;;;;;;;6.83;5.73;;;13.90;99.90;;;;;;5053232;28;20438;-60
2022/04/14 01:22:05;;;;;;;6.17;4.70;;;13.80;99.90;;;;;;5053043;28;20476;-60
2022/04/14 01:24:34;;;;;;;6.50;5.00;;;13.80;99.90;;;;;;5052943;28;20433;-60
2022/04/14 01:27:01;;;;;;;7.40;5.27;;;13.70;99.90;;;;;;5053108;28;20453;-60
2022/04/14 01:29:29;;;;;;;6.10;5.50;;;13.60;99.90;;;;;;5052500;28;20559;-60
2022/04/14 01:31:58;;;;;;;10.73;5.07;;;13.60;99.90;;;;;;5052846;28;20430;-60
2022/04/14 01:34:25;;;;;;;9.47;5.50;;;13.60;99.90;;;;;;5052518;28;20991;-60
2022/04/14 01:36:52;;;;;;;5.80;5.20;;;13.60;99.90;;;;;;5054499;28;20456;-60
2022/04/14 01:39:19;;;;;;;8.27;6.03;;;13.50;99.90;;;;;;5055886;28;20975;-60
2022/04/14 01:41:48;;;;;;;10.60;5.80;;;13.60;99.90;;;;;;5056311;28;20452;-60
2022/04/14 01:44:15;;;;;;;7.13;5.17;;;13.50;99.90;;;;;;5056252;28;20842;-60
2022/04/14 01:46:43;;;;;;;9.83;5.20;;;13.50;99.90;;;;;;5055907;28;20452;-60
2022/04/14 01:49:10;;;;;;;7.70;5.47;;;13.50;99.90;;;;;;5055909;28;20473;-60
2022/04/14 01:51:38;;;;;;;6.33;4.60;;;13.40;99.90;;;;;;5056239;28;20805;-60
2022/04/14 01:54:05;;;;;;;5.90;5.30;;;13.30;99.90;;;;;;5056045;28;20485;-60
2022/04/14 01:56:33;;;;;;;12.47;5.30;;;13.40;99.90;;;;;;5055701;28;20460;-60
2022/04/14 01:59:02;;;;;;;5.93;4.87;;;13.40;99.90;;;;;;5055975;28;20523;-60
2022/04/14 02:01:29;;;;;;;10.20;5.97;;;13.40;99.90;;;;;;5056094;28;20449;-60
2022/04/14 02:03:58;;;;;;;6.37;5.77;;;13.40;99.90;;;;;;5055942;28;20485;-60
2022/04/14 02:06:25;;;;;;;6.53;5.70;;;13.30;99.90;;;;;;5055967;28;20453;-60
2022/04/14 02:08:52;;;;;;;6.10;5.03;;;13.30;99.90;;;;;;5055533;28;20944;-60
2022/04/14 02:11:19;;;;;;;9.50;5.20;;;13.30;99.90;;;;;;5055760;28;20453;-60
2022/04/14 02:13:47;;;;;;;7.87;5.33;;;13.30;99.90;;;;;;5055911;28;20480;-60
2022/04/14 02:16:15;;;;;;;5.30;4.80;;;13.30;99.90;;;;;;5055735;28;20449;-60
2022/04/14 02:18:42;;;;;;;6.40;5.07;;;13.30;99.90;;;;;;5055615;28;20473;-60
2022/04/14 02:21:10;;;;;;;5.63;5.10;;;13.30;99.90;;;;;;5055407;28;20453;-60
2022/04/14 02:23:37;;;;;;;9.80;5.43;;;13.30;99.90;;;;;;5055281;28;20449;-60
2022/04/14 02:26:04;;;;;;;7.47;5.17;;;13.20;99.90;;;;;;5055481;28;20810;-60
2022/04/14 02:28:31;;;;;;;7.40;5.57;;;13.10;99.90;;;;;;5055254;28;20475;-60
2022/04/14 02:30:58;;;;;;;7.47;6.53;;;13.10;99.90;;;;;;5054952;28;20484;-60
2022/04/14 02:33:29;;;;;;;7.73;5.40;;;13.10;99.90;;;;;;5055066;28;20437;-60
2022/04/14 02:35:56;;;;;;;6.10;4.90;;;13.10;99.90;;;;;;5055080;28;20453;-60
2022/04/14 02:38:23;;;;;;;7.33;5.63;;;13.00;99.90;;;;;;5055041;28;20967;-60
2022/04/14 02:40:50;;;;;;;5.10;4.13;;;13.10;99.90;;;;;;5055290;28;20857;-60
2022/04/14 02:43:17;;;;;;;6.13;5.00;;;13.10;99.90;;;;;;5055153;28;20453;-60
2022/04/14 02:45:44;;;;;;;5.50;5.00;;;12.90;99.90;;;;;;5055242;28;20854;-60
2022/04/14 02:48:11;;;;;;;7.30;5.23;;;12.80;99.90;;;;;;5055030;28;20566;-60
2022/04/14 02:50:43;;;;;;;5.67;5.10;;;12.90;99.90;;;;;;5055050;28;20453;-60
2022/04/14 02:53:10;;;;;;;10.00;6.93;;;12.90;99.90;;;;;;5055121;28;20429;-60
2022/04/14 02:55:37;;;;;;;7.97;5.43;;;12.90;99.90;;;;;;5054936;28;20489;-60
2022/04/14 02:58:05;;;;;;;6.00;5.00;;;12.90;99.90;;;;;;5054876;28;20469;-60
2022/04/14 03:00:32;;;;;;;7.23;5.03;;;12.90;99.90;;;;;;5054826;28;20515;-60
2022/04/14 03:03:00;;;;;;;8.73;5.50;;;12.90;99.90;;;;;;5054816;28;20498;-60
2022/04/14 03:05:27;;;;;;;6.17;5.57;;;12.80;99.90;;;;;;5054449;28;20449;-60
2022/04/14 03:07:55;;;;;;;6.77;5.50;;;12.80;99.90;;;;;;5054781;28;20542;-60
2022/04/14 03:10:22;;;;;;;8.10;5.13;;;12.80;99.90;;;;;;5054680;28;20453;-60
2022/04/14 03:12:51;;;;;;;11.90;5.47;;;12.80;99.90;;;;;;5054320;28;20498;-60
2022/04/14 03:15:18;;;;;;;6.43;5.33;;;12.80;99.90;;;;;;5054807;28;20485;-60
2022/04/14 03:17:49;;;;;;;6.53;5.70;;;12.80;99.90;;;;;;5054232;28;20468;-60
2022/04/14 03:20:16;;;;;;;7.97;5.50;;;12.80;99.90;;;;;;5054514;28;20889;-60
2022/04/14 03:22:43;;;;;;;8.97;6.17;;;12.70;99.90;;;;;;5054467;28;20452;-60
2022/04/14 03:25:14;;;;;;;7.23;5.17;;;12.80;99.90;;;;;;5054164;28;20457;-60
2022/04/14 03:27:42;;;;;;;11.20;5.50;;;12.80;99.90;;;;;;5054003;28;20476;-59
2022/04/14 03:30:10;;;;;;;12.70;5.10;;;12.70;99.90;;;;;;5053880;28;20611;-60
2022/04/14 03:32:41;;;;;;;8.47;5.40;;;12.60;99.90;;;;;;5054323;28;20453;-60
2022/04/14 03:35:09;;;;;;;9.90;6.13;;;12.50;99.90;;;;;;5054165;28;20515;-60
2022/04/14 03:37:36;;;;;;;6.87;5.10;;;12.50;99.90;;;;;;5054075;28;20465;-60
2022/04/14 03:40:04;;;;;;;7.67;5.20;;;12.50;99.90;;;;;;5053897;28;21013;-60
2022/04/14 03:42:33;;;;;;;6.37;5.60;;;12.40;99.90;;;;;;5054131;28;20453;-60
2022/04/14 03:45:00;;;;;;;7.50;6.20;;;12.50;99.90;;;;;;5053775;28;20810;-60
2022/04/14 03:47:27;;;;;;;8.17;5.20;;;12.50;99.90;;;;;;5053578;28;20473;-60
2022/04/14 03:49:54;;;;;;;8.90;5.80;;;12.60;99.90;;;;;;5054020;28;20507;-60
2022/04/14 03:52:21;;;;;;;6.00;5.40;;;12.50;99.90;;;;;;5054046;28;20445;-60
2022/04/14 03:54:48;;;;;;;9.40;5.67;;;12.50;99.90;;;;;;5053624;28;20539;-60
2022/04/14 03:57:15;;;;;;;7.50;6.23;;;12.60;99.90;;;;;;5053892;28;20436;-60
2022/04/14 03:59:44;;;;;;;6.30;5.47;;;12.50;99.90;;;;;;5053145;28;20461;-60
2022/04/14 04:02:11;;;;;;;6.70;6.10;;;12.40;99.90;;;;;;5053338;28;20492;-60
2022/04/14 04:04:38;;;;;;;8.17;6.33;;;12.40;99.90;;;;;;5053756;28;20503;-60
2022/04/14 04:07:06;;;;;;;13.10;6.60;;;12.40;99.90;;;;;;5053213;28;20453;-60
2022/04/14 04:09:33;;;;;;;8.50;7.17;;;12.40;99.90;;;;;;5053704;28;20456;-60
2022/04/14 04:12:00;;;;;;;6.43;5.77;;;12.50;99.90;;;;;;5053514;28;20963;-60
2022/04/14 04:14:28;;;;;;;10.70;5.63;;;12.40;99.90;;;;;;5053509;28;20574;-60
2022/04/14 04:16:56;;;;;;;6.30;5.70;;;12.50;99.90;;;;;;5053596;28;20851;-60
2022/04/14 04:19:23;;;;;;;7.13;6.20;;;12.50;99.90;;;;;;5053548;28;20893;-60
2022/04/14 04:21:50;;;;;;;10.40;5.57;;;12.50;99.90;;;;;;5053243;28;20947;-59
2022/04/14 04:24:17;;;;;;;6.50;5.80;;;12.40;99.90;;;;;;5053538;28;20495;-60
2022/04/14 04:26:44;;;;;;;10.17;6.67;;;12.40;99.90;;;;;;5053204;28;20449;-60
2022/04/14 04:29:11;;;;;;;10.53;7.40;;;12.40;99.90;;;;;;5052918;28;21085;-60
2022/04/14 04:31:38;;;;;;;8.70;5.60;;;12.40;99.90;;;;;;5053399;28;20437;-60
2022/04/14 04:34:06;;;;;;;11.67;6.73;;;12.40;99.90;;;;;;5053553;28;20888;-60
2022/04/14 04:36:33;;;;;;;10.20;6.97;;;12.40;99.90;;;;;;5053388;28;20448;-60
2022/04/14 04:39:01;;;;;;;11.23;6.73;;;12.40;99.90;;;;;;5052917;28;20472;-60
2022/04/14 04:41:29;;;;;;;7.30;6.60;;;12.30;99.90;;;;;;5053380;28;20506;-60
2022/04/14 04:43:56;;;;;;;8.77;6.57;;;12.30;99.90;;;;;;5053324;28;20473;-60
2022/04/14 04:46:23;;;;;;;12.37;8.90;;;12.20;99.90;;;;;;5053203;28;20445;-60
2022/04/14 04:48:50;;;;;;;8.70;7.80;;;12.30;99.90;;;;;;5052820;28;20461;-60
2022/04/14 04:51:19;;;;;;;10.70;7.17;;;12.30;99.90;;;;;;5053247;28;20519;-61
2022/04/14 04:53:46;;;;;;;8.97;7.10;;;12.30;99.90;;;;;;5052911;28;20511;-60
2022/04/14 04:56:13;;;;;;;10.73;8.40;;;12.30;99.90;;;;;;5053112;28;20511;-60
2022/04/14 04:58:40;;;;;;;8.07;7.13;;;12.30;99.90;;;;;;5053118;28;20469;-60
2022/04/14 05:01:07;;;;;;;9.53;8.10;;;12.30;99.90;;;;;;5052992;28;20453;-60
2022/04/14 05:03:34;;;;;;;10.60;8.00;;;12.30;99.90;;;;;;5052758;28;20448;-60
2022/04/14 05:06:01;;;;;;;15.30;9.30;;;12.40;99.90;;;;;;5053321;28;20445;-60
2022/04/14 05:08:29;;;;;;;12.50;8.70;;;12.40;99.90;;;;;;5052980;28;20494;-60
2022/04/14 05:10:57;;;;;;;10.70;8.50;;;12.40;99.90;;;;;;5053079;28;21017;-60
2022/04/14 05:13:24;;;;;;;13.90;10.00;;;12.50;99.90;;;;;;5056613;28;20922;-60
2022/04/14 05:15:51;;;;;;;12.47;9.10;;;12.50;99.90;;;;;;5056415;28;20491;-59
2022/04/14 05:18:18;;;;;;;10.50;8.77;;;12.60;99.90;;;;;;5056396;28;20997;-60
2022/04/14 05:20:45;;;;;;;14.03;9.80;;;12.40;99.90;;;;;;5056692;28;20455;-60
2022/04/14 05:23:13;;;;;;;14.30;8.73;;;12.50;99.90;;;;;;5056296;28;20453;-60
2022/04/14 05:25:42;;;;;;;12.30;7.30;;;12.60;99.90;;;;;;5056369;28;20457;-60
2022/04/14 05:28:09;;;;;;;9.90;8.17;;;12.60;99.90;;;;;;5056454;28;20508;-60
2022/04/14 05:30:36;;;;;;;11.63;8.07;;;12.60;99.90;;;;;;5056007;28;20473;-60
2022/04/14 05:33:05;;;;;;;12.70;9.40;;;12.60;99.90;;;;;;5056333;28;20473;-60
2022/04/14 05:35:32;;;;;;;17.20;13.67;;;12.70;99.90;;;;;;5056213;28;20477;-63
2022/04/14 05:38:00;;;;;;;17.37;11.57;;;12.90;99.90;;;;;;5056021;28;20469;-60
2022/04/14 05:40:28;;;;;;;15.50;10.67;;;12.90;99.90;;;;;;5055995;28;20457;-60
2022/04/14 05:42:57;;;;;;;14.57;10.40;;;13.00;99.90;;;;;;5056055;28;20518;-60
2022/04/14 05:45:24;;;;;;;14.30;9.57;;;13.00;99.90;;;;;;5055930;28;20517;-61
2022/04/14 05:47:51;;;;;;;12.50;9.90;;;13.00;99.90;;;;;;5055901;28;20979;-60
2022/04/14 05:50:20;;;;;;;15.53;10.27;;;13.00;99.90;;;;;;5055820;28;20445;-61
2022/04/14 05:52:47;;;;;;;16.97;10.13;;;13.10;99.90;;;;;;5055713;28;20449;-61
2022/04/14 05:55:14;;;;;;;14.93;10.23;;;13.20;99.90;;;;;;5055567;28;20489;-60
2022/04/14 05:57:41;;;;;;;13.30;9.10;;;13.20;99.90;;;;;;5055844;28;20516;-60
2022/04/14 06:00:13;;;;;;;18.70;10.27;;;13.20;99.90;;;;;;5055445;28;20453;-60
2022/04/14 06:02:40;;;;;;;12.60;11.10;;;13.20;99.90;;;;;;5055667;28;20430;-60
2022/04/14 06:05:09;;;;;;;17.33;11.77;;;13.30;99.90;;;;;;5055286;28;20446;-60
2022/04/14 06:07:36;;;;;;;15.70;12.63;;;13.30;99.90;;;;;;5055674;28;20826;-59
2022/04/14 06:10:03;;;;;;;19.63;15.90;;;13.40;99.90;;;;;;5055700;28;20472;-59
2022/04/14 06:12:30;;;;;;;22.33;16.27;;;13.50;99.90;;;;;;5055192;28;20452;-59
2022/04/14 06:14:57;;;;;;;20.00;16.73;;;13.60;99.90;;;;;;5055673;28;20844;-59
2022/04/14 06:17:26;;;;;;;28.60;22.47;;;13.70;99.90;;;;;;5055500;28;20465;-59
2022/04/14 06:19:55;;;;;;;30.20;20.33;;;13.80;99.90;;;;;;5055189;28;20455;-60
2022/04/14 06:22:22;;;;;;;25.80;19.60;;;13.90;99.90;;;;;;5054517;28;20452;-60
2022/04/14 06:24:49;;;;;;;26.00;23.17;;;14.00;99.90;;;;;;5054909;28;20449;-60
2022/04/14 06:27:16;;;;;;;34.93;23.70;;;14.20;99.90;;;;;;5055340;28;20425;-60
2022/04/14 06:29:44;;;;;;;31.57;24.50;;;14.30;99.90;;;;;;5055108;28;20484;-59
2022/04/14 06:32:11;;;;;;;29.23;24.27;;;14.40;99.90;;;;;;5054951;28;20453;-59
2022/04/14 06:34:39;;;;;;;34.00;25.40;;;14.50;99.90;;;;;;5054933;28;20970;-59
2022/04/14 06:37:06;;;;;;;30.13;24.63;;;14.50;99.90;;;;;;5055026;28;20485;-60
2022/04/14 06:39:33;;;;;;;26.53;23.50;;;14.50;99.90;;;;;;5055103;28;20450;-60
2022/04/14 06:42:00;;;;;;;33.40;23.20;;;14.50;99.90;;;;;;5055023;28;20445;-59
2022/04/14 06:44:28;;;;;;;28.13;25.13;;;14.60;99.90;;;;;;5055068;28;20777;-60
2022/04/14 06:46:55;;;;;;;28.17;25.00;;;14.70;99.90;;;;;;5054638;28;20975;-60
2022/04/14 06:49:22;;;;;;;32.87;24.33;;;14.80;99.90;;;;;;5054546;28;20465;-61
2022/04/14 06:51:51;;;;;;;27.10;22.50;;;14.90;99.90;;;;;;5054789;28;20536;-60
2022/04/14 06:54:18;;;;;;;27.73;21.20;;;14.90;99.90;;;;;;5054815;28;20457;-60
2022/04/14 06:56:45;;;;;;;29.83;22.93;;;14.90;99.90;;;;;;5054752;28;20976;-60
2022/04/14 06:59:12;;;;;;;32.83;23.03;;;15.00;99.90;;;;;;5054420;28;20552;-60
2022/04/14 07:01:39;;;;;;;28.47;21.70;;;15.00;99.90;;;;;;5054344;28;20541;-60
2022/04/14 07:04:09;;;;;;;35.67;23.00;;;15.20;99.90;;;;;;5054662;28;20449;-60
2022/04/14 07:06:36;;;;;;;27.00;21.70;;;15.20;99.90;;;;;;5054337;28;20980;-60
2022/04/14 07:09:04;;;;;;;22.23;19.10;;;15.30;99.90;;;;;;5054598;28;20526;-60
2022/04/14 07:11:31;;;;;;;38.33;21.43;;;15.40;99.90;;;;;;5054605;28;20475;-60
2022/04/14 07:13:59;;;;;;;27.07;19.70;;;15.40;99.90;;;;;;5054360;28;20450;-61
2022/04/14 07:16:26;;;;;;;26.30;18.97;;;15.50;99.90;;;;;;5053818;28;20534;-60
2022/04/14 07:18:53;;;;;;;22.53;19.90;;;15.60;99.90;;;;;;5054148;28;20556;-59
2022/04/14 07:21:21;;;;;;;27.77;21.70;;;15.70;99.90;;;;;;5053716;28;20449;-59
2022/04/14 07:23:48;;;;;;;29.57;21.60;;;15.50;99.90;;;;;;5053516;28;20456;-59
2022/04/14 07:26:16;;;;;;;26.73;21.00;;;15.50;99.90;;;;;;5054272;28;20456;-60
2022/04/14 07:28:48;;;;;;;22.37;19.97;;;15.70;99.90;;;;;;5053755;28;20470;-60
2022/04/14 07:31:15;;;;;;;23.10;18.80;;;15.80;99.90;;;;;;5053514;28;20457;-59
2022/04/14 07:33:42;;;;;;;30.17;20.20;;;15.80;99.90;;;;;;5052560;28;20532;-60
2022/04/14 07:36:10;;;;;;;28.13;18.60;;;15.90;99.90;;;;;;5052849;28;20485;-60
2022/04/14 07:38:37;;;;;;;24.17;20.40;;;16.00;99.90;;;;;;5053193;28;20467;-61
2022/04/14 07:41:05;;;;;;;26.37;20.20;;;16.10;99.90;;;;;;5053206;28;20448;-61
2022/04/14 07:43:34;;;;;;;22.30;19.80;;;16.00;99.90;;;;;;5053631;28;20465;-60
2022/04/14 07:46:03;;;;;;;24.37;18.80;;;16.00;99.90;;;;;;5053598;28;20445;-60
2022/04/14 07:48:30;;;;;;;22.37;18.67;;;16.00;99.90;;;;;;5053604;28;20487;-60
2022/04/14 07:50:59;;;;;;;23.10;19.03;;;15.90;99.90;;;;;;5053883;28;20460;-60
2022/04/14 07:53:27;;;;;;;23.10;20.60;;;16.10;99.90;;;;;;5053273;28;20534;-59
2022/04/14 07:55:54;;;;;;;21.03;17.60;;;16.20;99.90;;;;;;5053233;28;20508;-60
2022/04/14 07:58:21;;;;;;;21.10;17.40;;;16.40;99.90;;;;;;5053556;28;20469;-60
2022/04/14 08:00:50;;;;;;;22.67;16.90;;;16.50;99.90;;;;;;5053297;28;20485;-60
2022/04/14 08:03:18;;;;;;;23.13;16.27;;;16.60;99.90;;;;;;5053440;28;20445;-60
2022/04/14 08:05:46;;;;;;;26.50;17.10;;;16.70;99.90;;;;;;5053973;28;20471;-60
2022/04/14 08:08:15;;;;;;;20.23;16.63;;;16.80;99.90;;;;;;5053561;28;20469;-59
2022/04/14 08:10:44;;;;;;;20.60;18.43;;;16.70;99.90;;;;;;5053166;28;20954;-60
2022/04/14 08:13:12;;;;;;;22.17;17.60;;;16.80;99.90;;;;;;5053486;28;20899;-60
2022/04/14 08:15:40;;;;;;;24.00;19.10;;;17.00;99.90;;;;;;5053264;28;20487;-60
2022/04/14 08:18:12;;;;;;;21.50;18.37;;;16.90;99.90;;;;;;5053304;28;20548;-60
2022/04/14 08:20:40;;;;;;;24.70;18.30;;;16.90;99.90;;;;;;5053342;28;20456;-60
2022/04/14 08:23:11;;;;;;;18.70;16.80;;;17.20;99.90;;;;;;5053230;28;20887;-60
2022/04/14 08:25:38;;;;;;;22.83;17.00;;;17.40;99.90;;;;;;5053092;28;20463;-60
2022/04/14 08:28:07;;;;;;;21.93;18.63;;;17.50;99.90;;;;;;5053231;28;20483;-61
2022/04/14 08:30:37;;;;;;;22.40;18.57;;;17.70;99.90;;;;;;5052921;28;20472;-61
2022/04/14 08:33:06;;;;;;;24.93;18.23;;;17.80;99.90;;;;;;5053132;28;20449;-60
2022/04/14 08:35:36;;;;;;;20.10;16.27;;;18.40;99.90;;;;;;5053177;28;20477;-60
2022/04/14 08:38:04;;;;;;;19.67;16.30;;;18.80;99.90;;;;;;5052956;28;20469;-60
2022/04/14 08:40:35;;;;;;;18.60;16.70;;;19.10;99.90;;;;;;5053314;28;20445;-60
2022/04/14 08:43:04;;;;;;;18.43;13.93;;;20.00;99.90;;;;;;5053226;28;20838;-61
2022/04/14 08:45:34;;;;;;;19.13;15.93;;;20.60;99.90;;;;;;5054693;28;20865;-60
2022/04/14 08:48:01;;;;;;;21.83;16.83;;;21.00;99.90;;;;;;5057350;28;20465;-60
2022/04/14 08:50:30;;;;;;;20.77;15.60;;;21.30;99.90;;;;;;5056783;28;20962;-61
2022/04/14 08:52:58;;;;;;;18.03;15.97;;;21.50;99.90;;;;;;5057216;28;20467;-61
2022/04/14 08:55:26;;;;;;;20.17;16.33;;;22.30;99.90;;;;;;5056677;28;20452;-61
2022/04/14 08:57:55;;;;;;;17.50;15.70;;;22.20;99.90;;;;;;5056663;28;20539;-60
2022/04/14 09:00:22;;;;;;;20.33;16.20;;;21.90;99.90;;;;;;5056527;28;20814;-61
2022/04/14 09:02:51;;;;;;;16.07;14.47;;;22.10;99.90;;;;;;5056634;28;20804;-60
2022/04/14 09:05:19;;;;;;;18.47;14.57;;;22.40;99.90;;;;;;5056739;28;20463;-60
2022/04/14 09:07:49;;;;;;;16.33;14.60;;;22.90;99.90;;;;;;5056768;28;20540;-60
2022/04/14 09:10:18;;;;;;;16.43;14.93;;;22.80;99.90;;;;;;5056735;28;20476;-60
2022/04/14 09:12:47;;;;;;;17.30;15.50;;;23.00;99.90;;;;;;5056714;28;20449;-60
2022/04/14 09:15:14;;;;;;;16.50;14.80;;;23.10;99.90;;;;;;5056347;28;20523;-60
2022/04/14 09:17:42;;;;;;;18.03;15.13;;;23.10;99.90;;;;;;5056242;28;20489;-61
2022/04/14 09:20:28;;;;;;;18.53;14.53;;;23.50;99.90;;;;;;5056662;28;20453;-61
2022/04/14 09:23:11;;;;;;;21.97;15.83;;;23.70;99.90;;;;;;5056190;28;20449;-60
2022/04/14 09:25:40;;;;;;;16.47;14.70;;;23.80;98.80;;;;;;5056476;28;20928;-60
2022/04/14 09:28:11;;;;;;;17.27;14.07;;;23.80;99.20;;;;;;5056555;28;20491;-60
2022/04/14 09:30:38;;;;;;;20.17;15.90;;;23.70;99.20;;;;;;5055319;28;20477;-60
2022/04/14 09:33:06;;;;;;;15.80;14.10;;;23.80;98.90;;;;;;5056000;28;20455;-60
2022/04/14 09:35:33;;;;;;;17.97;14.57;;;23.60;98.50;;;;;;5056349;28;20453;-60
2022/04/14 09:38:06;;;;;;;16.73;14.90;;;24.40;97.70;;;;;;5056105;28;20571;-61
2022/04/14 09:40:34;;;;;;;20.43;14.57;;;24.90;97.20;;;;;;5056710;28;20826;-61
2022/04/14 09:43:04;;;;;;;16.40;14.40;;;25.20;96.30;;;;;;5056283;28;20453;-61
2022/04/14 09:45:32;;;;;;;17.60;15.73;;;25.10;95.60;;;;;;5056219;28;20452;-61
2022/04/14 09:48:04;;;;;;;18.53;16.13;;;25.00;95.80;;;;;;5055743;28;20984;-61
2022/04/14 09:50:34;;;;;;;16.73;14.77;;;;;;;;;;5055861;28;20426;-61
2022/04/14 09:53:05;;;;;;;20.63;18.43;;;25.50;96.30;;;;;;5056250;28;20449;-61
2022/04/14 09:55:32;;;;;;;19.43;16.30;;;24.90;95.60;;;;;;5055597;28;20823;-60
2022/04/14 09:58:12;;;;;;;21.17;16.87;;;25.00;96.00;;;;;;5054938;28;20493;-60
2022/04/14 10:00:41;;;;;;;22.97;16.77;;;24.50;97.20;;;;;;5055808;28;20464;-61
2022/04/14 10:03:11;;;;;;;22.60;15.33;;;24.10;97.10;;;;;;5055809;28;20568;-61
2022/04/14 10:05:39;;;;;;;17.37;15.60;;;25.00;96.70;;;;;;5055532;28;20459;-60
2022/04/14 10:08:08;;;;;;;20.43;16.60;;;25.40;95.90;;;;;;5055652;28;20514;-60
2022/04/14 10:10:37;;;;;;;17.63;14.80;;;25.50;95.20;;;;;;5055827;28;20503;-60
2022/04/14 10:13:05;;;;;;;19.37;14.30;;;24.80;96.00;;;;;;5055650;28;20511;-60
2022/04/14 10:15:36;;;;;;;19.33;16.70;;;24.90;94.90;;;;;;5055302;28;20456;-60
2022/04/14 10:18:09;;;;;;;16.40;14.53;;;24.40;95.50;;;;;;5055360;28;20516;-60
2022/04/14 10:20:37;;;;;;;17.83;13.60;;;25.20;95.80;;;;;;5055821;28;20434;-60
2022/04/14 10:23:04;;;;;;;18.80;16.00;;;25.40;95.10;;;;;;5055427;28;20461;-60
2022/04/14 10:25:32;;;;;;;17.87;15.57;;;25.90;93.90;;;;;;5055374;28;20457;-60
2022/04/14 10:28:00;;;;;;;16.57;14.27;;;26.10;93.20;;;;;;5055398;28;20548;-60
2022/04/14 10:30:28;;;;;;;17.73;14.37;;;26.20;92.70;;;;;;5054936;28;20469;-60
2022/04/14 10:32:57;;;;;;;18.40;16.50;;;26.40;92.80;;;;;;5054817;28;20449;-60
2022/04/14 10:35:25;;;;;;;18.90;15.83;;;25.80;92.50;;;;;;5054578;28;20540;-61
2022/04/14 10:38:00;;;;;;;15.83;14.07;;;26.10;92.20;;;;;;5054891;28;20485;-61
2022/04/14 10:40:28;;;;;;;16.23;14.00;;;26.20;92.50;;;;;;5055248;28;20429;-61
2022/04/14 10:42:57;;;;;;;16.50;13.50;;;26.30;92.30;;;;;;5054824;28;20445;-61
2022/04/14 10:45:24;;;;;;;16.07;13.20;;;25.70;92.10;;;;;;5054725;28;20461;-61
2022/04/14 10:48:00;;;;;;;16.50;14.80;;;26.60;92.00;;;;;;5055007;28;20468;-61
2022/04/14 10:50:30;;;;;;;15.57;13.97;;;26.90;90.60;;;;;;5055390;28;20449;-61
2022/04/14 10:53:09;;;;;;;17.20;15.47;;;26.90;90.20;;;;;;5054503;28;20456;-61
2022/04/14 10:55:38;;;;;;;24.10;15.77;;;27.00;90.00;;;;;;5054847;28;20464;-61
2022/04/14 10:58:05;;;;;;;16.10;14.33;;;27.20;90.50;;;;;;5054417;28;20485;-61
2022/04/14 11:00:37;;;;;;;17.07;14.93;;;27.00;88.10;;;;;;5054848;28;20528;-62
2022/04/14 11:03:11;;;;;;;22.80;13.47;;;26.70;88.40;;;;;;5054603;28;20437;-61
2022/04/14 11:05:40;;;;;;;19.50;14.80;;;27.10;90.10;;;;;;5054659;28;20440;-61
2022/04/14 11:08:27;;;;;;;16.33;13.20;;;27.20;88.90;;;;;;5054149;28;20480;-61
2022/04/14 11:11:11;;;;;;;20.57;14.30;;;27.00;87.20;;;;;;5054140;28;20438;-61
2022/04/14 11:14:07;;;;;;;17.80;14.57;;;26.80;85.60;;;;;;5052366;28;20461;-61
2022/04/14 11:16:43;;;;;;;18.27;14.70;;;26.60;85.90;;;;;;5053876;28;20968;-61
2022/04/14 11:19:30;;;;;;;16.50;14.40;;;26.70;86.40;;;;;;5054062;28;20476;-62
2022/04/14 11:22:02;;;;;;;16.77;13.77;;;26.50;85.50;;;;;;5054403;28;20430;-61
2022/04/14 11:24:47;;;;;;;17.43;14.10;;;26.80;86.80;;;;;;5054123;28;20445;-61
2022/04/14 11:27:15;;;;;;;16.83;14.27;;;26.80;85.70;;;;;;5053907;28;20426;-61
2022/04/14 11:29:44;;;;;;;17.80;13.20;;;26.20;83.40;;;;;;5054043;28;20481;-61
2022/04/14 11:32:13;;;;;;;17.63;12.97;;;26.10;84.00;;;;;;5054235;28;20449;-61
2022/04/14 11:34:42;;;;;;;16.93;14.77;;;26.70;85.60;;;;;;5053752;28;20449;-61
2022/04/14 11:37:40;;;;;;;19.93;15.40;;;26.30;84.00;;;;;;5053951;28;20493;-61
2022/04/14 11:40:16;;;;;;;15.47;13.13;;;26.10;87.80;;;;;;5053713;28;20522;-61
2022/04/14 11:42:44;;;;;;;17.10;14.07;;;26.80;87.20;;;;;;5053756;28;20441;-61
2022/04/14 11:45:11;;;;;;;18.93;13.63;;;26.70;87.90;;;;;;5053655;28;20451;-61
2022/04/14 11:47:40;;;;;;;17.30;15.50;;;27.20;88.10;;;;;;5053886;28;20465;-60
2022/04/14 11:50:09;;;;;;;17.00;15.20;;;26.90;86.20;;;;;;5053742;28;20481;-60
2022/04/14 11:52:38;;;;;;;17.53;14.20;;;25.90;86.20;;;;;;5053753;28;20452;-61
2022/04/14 11:55:07;;;;;;;14.90;13.33;;;25.50;87.70;;;;;;5053537;28;20457;-60
2022/04/14 11:57:37;;;;;;;14.50;13.10;;;25.70;87.50;;;;;;5053358;28;20489;-60
2022/04/14 12:00:12;;;;;;;16.83;12.60;;;25.90;88.80;;;;;;5053650;28;20457;-60
2022/04/14 12:02:40;;;;;;;16.30;13.37;;;26.30;88.80;;;;;;5053430;28;20594;-60
2022/04/14 12:05:09;;;;;;;17.07;15.30;;;26.40;87.90;;;;;;5053533;28;20848;-60
2022/04/14 12:07:36;;;;;;;14.70;12.70;;;26.70;86.40;;;;;;5052243;28;20976;-60
2022/04/14 12:10:05;;;;;;;21.20;14.87;;;26.50;88.40;;;;;;5052855;28;20816;-60
2022/04/14 12:12:33;;;;;;;16.40;13.50;;;26.50;85.50;;;;;;5053215;28;20552;-60
2022/04/14 12:15:01;;;;;;;17.80;15.53;;;26.40;85.70;;;;;;5053678;28;20449;-60
2022/04/14 12:17:30;;;;;;;18.77;16.97;;;26.90;85.30;;;;;;5053225;28;20503;-60
2022/04/14 12:19:58;;;;;;;19.47;17.37;;;;;;;;;;5052738;28;20519;-60
2022/04/14 12:22:29;;;;;;;17.03;14.70;;;24.70;90.00;;;;;;5053022;28;20540;-60
2022/04/14 12:25:00;;;;;;;13.40;12.00;;;25.00;89.90;;;;;;5053323;28;20778;-60
2022/04/14 12:27:30;;;;;;;16.37;14.70;;;25.70;90.60;;;;;;5052985;28;20465;-60
2022/04/14 12:30:03;;;;;;;16.63;13.53;;;26.40;89.60;;;;;;5052846;28;20550;-60
2022/04/14 12:32:31;;;;;;;15.93;14.27;;;26.50;89.40;;;;;;5053498;28;20452;-60
2022/04/14 12:34:58;;;;;;;20.80;14.33;;;26.70;87.00;;;;;;5052986;28;20450;-60
2022/04/14 12:37:36;;;;;;;16.23;14.63;;;26.50;87.40;;;;;;5052593;28;20995;-60
2022/04/14 12:40:11;;;;;;;16.03;14.40;;;26.30;88.10;;;;;;5053221;28;20516;-60
2022/04/14 12:42:39;;;;;;;18.47;16.50;;;26.00;88.00;;;;;;5053184;28;20800;-61